Time;durP1;ratioP1;P1;durP2;ratioP2;P2;SDS_P1;SDS_P2;PMS_P1;PMS_P2;Temp;Humidity;BMP_temperature;BMP_pressure;BME280_temperature;BME280_humidity;BME280_pressure;Samples;Min_cycle;Max_cycle;Signal;HPM_P1;HPM_P2
2021/08/10 00:00:15;;;;;;;;;0.00;0.00;;;;;26.46;40.73;100906.56;5075601;28;45441;-65
2021/08/10 00:02:40;;;;;;;;;0.00;0.00;;;;;26.46;40.61;100911.13;5076135;28;45443;-64
2021/08/10 00:05:07;;;;;;;;;0.00;0.00;;;;;26.46;40.48;100914.75;5057648;28;45785;-65
2021/08/10 00:07:32;;;;;;;;;0.00;0.00;;;;;26.46;40.97;100906.56;5076115;28;46526;-65
2021/08/10 00:09:58;;;;;;;;;0.00;0.00;;;;;26.46;40.75;100909.31;5075859;28;45449;-65
2021/08/10 00:12:23;;;;;;;;;0.00;0.00;;;;;26.46;40.69;100908.41;5057652;28;45762;-65
2021/08/10 00:14:49;;;;;;;;;0.00;0.00;;;;;26.45;40.59;100915.69;5076413;28;45722;-65
2021/08/10 00:17:14;;;;;;;;;0.00;0.00;;;;;26.45;41.11;100912.97;5075622;28;45460;-65
2021/08/10 00:19:40;;;;;;;;;0.00;0.00;;;;;26.45;40.77;100918.44;5075378;28;45427;-65
2021/08/10 00:22:05;;;;;;;;;0.00;0.00;;;;;26.45;41.11;100901.19;5075650;28;45421;-64
2021/08/10 00:24:30;;;;;;;;;0.00;0.00;;;;;26.45;40.98;100899.34;5075906;28;45447;-64
2021/08/10 00:26:58;;;;;;;;;0.00;0.00;;;;;26.45;40.75;100902.06;5075450;28;45496;-64
2021/08/10 00:29:25;;;;;;;;;0.00;0.00;;;;;26.45;40.47;100907.53;5075323;28;45580;-64
2021/08/10 00:31:50;;;;;;;;;0.00;0.00;;;;;26.45;41.18;100906.66;5057248;28;45600;-65
2021/08/10 00:34:16;;;;;;;;;0.00;0.00;;;;;26.44;41.13;100897.59;5075608;28;45427;-65
2021/08/10 00:36:41;;;;;;;;;0.00;0.00;;;;;26.45;40.73;100902.06;5075384;28;45000;-64
2021/08/10 00:39:07;;;;;;;;;0.00;0.00;;;;;26.44;41.04;100894.84;5074922;28;45710;-64
2021/08/10 00:41:32;;;;;;;;;0.00;0.00;;;;;26.42;40.69;100891.31;5075438;28;45375;-64
2021/08/10 00:43:58;;;;;;;;;0.00;0.00;;;;;26.45;40.89;100899.34;5057357;28;45502;-64
2021/08/10 00:46:23;;;;;;;;;0.00;0.00;;;;;26.43;41.11;100898.53;5074997;28;46105;-64
2021/08/10 00:48:48;;;;;;;;;0.00;0.00;;;;;26.45;40.92;100902.06;5075163;28;45493;-64
2021/08/10 00:51:14;;;;;;;;;0.00;0.00;;;;;26.45;41.13;100895.72;5074805;28;45803;-65
2021/08/10 00:53:42;;;;;;;;;0.00;0.00;;;;;26.45;41.05;100907.53;5057156;28;45475;-65
2021/08/10 00:56:08;;;;;;;;;0.00;0.00;;;;;26.44;40.69;100913.03;5073393;28;46668;-64
2021/08/10 00:58:35;;;;;;;;;0.00;0.00;;;;;26.43;40.75;100911.28;5075262;28;45478;-65
2021/08/10 01:01:01;;;;;;;;;0.00;0.00;;;;;26.44;41.10;100922.13;5075621;28;45527;-65
2021/08/10 01:03:26;;;;;;;;;0.00;0.00;;;;;26.40;40.54;100925.97;5075033;28;44768;-65
2021/08/10 01:05:52;;;;;;;;;0.00;0.00;;;;;26.43;41.12;100944.00;5074915;28;45436;-65
2021/08/10 01:08:39;;;;;;;;;0.00;0.00;;;;;26.44;40.66;100943.94;5056584;28;45510;-65
2021/08/10 01:12:00;;;;;;;;;0.00;0.00;;;;;26.43;40.67;100933.97;5056587;28;45431;-65
2021/08/10 01:14:47;;;;;;;;;0.00;0.00;;;;;26.43;40.91;100944.88;4989728;28;46607;-65
2021/08/10 01:17:15;;;;;;;;;0.00;0.00;;;;;26.44;41.17;100948.50;4992119;28;46477;-64
2021/08/10 01:20:13;;;;;;;;;0.00;0.00;;;;;26.42;40.74;100944.97;4991819;28;45522;-64
2021/08/10 01:22:44;;;;;;;;;0.00;0.00;;;;;26.42;41.11;100943.13;4975684;28;45442;-64
2021/08/10 01:25:32;;;;;;;;;0.00;0.00;;;;;26.42;40.78;100937.69;4992243;28;45476;-64
2021/08/10 01:28:17;;;;;;;;;0.00;0.00;;;;;26.41;40.82;100932.31;4991906;28;45443;-65
2021/08/10 01:31:04;;;;;;;;;0.00;0.00;;;;;26.41;41.18;100935.03;4991775;28;45440;-65
2021/08/10 01:33:35;;;;;;;;;0.00;0.00;;;;;26.40;40.90;100939.59;4991876;28;45554;-65
2021/08/10 01:36:02;;;;;;;;;0.00;0.00;;;;;26.40;40.68;100935.97;4991903;28;45509;-65
2021/08/10 01:38:30;;;;;;;;;0.00;0.00;;;;;26.40;40.83;100931.44;4991553;28;45599;-64
2021/08/10 01:40:56;;;;;;;;;0.00;0.00;;;;;26.40;41.28;100934.16;4991704;28;45573;-64
2021/08/10 01:43:21;;;;;;;;;0.00;0.00;;;;;26.39;41.11;100921.47;4991886;28;45534;-64
2021/08/10 01:45:50;;;;;;;;;0.00;0.00;;;;;26.39;41.00;100920.59;4991938;28;45570;-64
2021/08/10 01:48:16;;;;;;;;;0.00;0.00;;;;;26.37;40.69;100915.19;4975270;28;45524;-65
2021/08/10 01:50:44;;;;;;;;;0.00;0.00;;;;;26.37;40.81;100920.66;5012674;28;45434;-65
2021/08/10 01:53:11;;;;;;;;;0.00;0.00;;;;;26.37;40.78;100923.38;5074745;28;45479;-64
2021/08/10 01:55:37;;;;;;;;;0.00;0.00;;;;;26.36;40.86;100927.06;5073138;28;45444;-65
2021/08/10 01:58:03;;;;;;;;;0.00;0.00;;;;;26.35;41.16;100928.03;5074222;28;46093;-65
2021/08/10 02:00:29;;;;;;;;;0.00;0.00;;;;;26.33;41.27;100930.81;5074398;28;45500;-64
2021/08/10 02:02:56;;;;;;;;;0.00;0.00;;;;;26.35;41.42;100945.25;5074323;27;45464;-64
2021/08/10 02:05:22;;;;;;;;;0.00;0.00;;;;;26.33;40.95;100943.56;5056130;28;45354;-65
2021/08/10 02:07:48;;;;;;;;;0.00;0.00;;;;;26.34;41.28;100948.09;5075710;28;45633;-65
2021/08/10 02:10:15;;;;;;;;;0.00;0.00;;;;;26.33;41.17;100949.91;5077408;28;45617;-64
2021/08/10 02:12:40;;;;;;;;;0.00;0.00;;;;;26.33;40.78;100936.28;5077878;28;45460;-64
2021/08/10 02:15:06;;;;;;;;;0.00;0.00;;;;;26.33;41.42;100933.53;5078301;28;45449;-64
2021/08/10 02:17:32;;;;;;;;;0.00;0.00;;;;;26.32;41.21;100934.53;5077475;28;45514;-65
2021/08/10 02:19:57;;;;;;;;;0.00;0.00;;;;;26.33;41.23;100929.94;5059004;28;45415;-64
2021/08/10 02:22:23;;;;;;;;;0.00;0.00;;;;;26.29;41.47;100921.03;5077626;28;45441;-64
2021/08/10 02:24:55;;;;;;;;;0.00;0.00;;;;;26.32;41.18;100911.81;5059413;28;45425;-65
2021/08/10 02:27:33;;;;;;;;;0.00;0.00;;;;;26.31;40.89;100908.19;5077318;28;45460;-64
2021/08/10 02:30:03;;;;;;;;;0.00;0.00;;;;;26.32;41.38;100912.69;5077213;28;45859;-64
2021/08/10 02:32:30;;;;;;;;;0.00;0.00;;;;;26.29;41.03;100912.84;5059063;28;45559;-64
2021/08/10 02:34:58;;;;;;;;;0.00;0.00;;;;;26.30;41.22;100924.66;5077726;28;45444;-64
2021/08/10 02:37:24;;;;;;;;;0.00;0.00;;;;;26.29;41.26;100923.75;5077415;28;45911;-65
2021/08/10 02:39:52;;;;;;;;;0.00;0.00;;;;;26.28;41.37;100921.13;5076947;28;45483;-65
2021/08/10 02:42:22;;;;;;;;;0.00;0.00;;;;;26.28;41.29;100924.72;5077277;28;45452;-65
2021/08/10 02:44:51;;;;;;;;;0.00;0.00;;;;;26.29;41.27;100933.78;5077210;28;45440;-65
2021/08/10 02:47:18;;;;;;;;;0.00;0.00;;;;;26.27;41.17;100922.06;5076343;28;45560;-64
2021/08/10 02:49:43;;;;;;;;;0.00;0.00;;;;;26.28;40.96;100929.28;5077346;28;44923;-65
2021/08/10 02:52:10;;;;;;;;;0.00;0.00;;;;;26.26;40.99;100917.59;5076974;28;45546;-64
2021/08/10 02:54:37;;;;;;;;;0.00;0.00;;;;;26.26;41.61;100906.69;5077153;28;44898;-64
2021/08/10 02:57:09;;;;;;;;;0.00;0.00;;;;;26.26;41.31;100912.13;5074736;28;45551;-64
2021/08/10 02:59:41;;;;;;;;;0.00;0.00;;;;;26.24;41.49;100901.28;5076749;28;45558;-64
2021/08/10 03:02:17;;;;;;;;;0.00;0.00;;;;;26.24;41.30;100894.94;5077027;27;45456;-64
2021/08/10 03:04:52;;;;;;;;;0.00;0.00;;;;;26.23;41.68;100904.09;5077371;28;44894;-64
2021/08/10 03:07:22;;;;;;;;;0.00;0.00;;;;;26.22;41.28;100910.47;5058282;28;47270;-64
2021/08/10 03:09:50;;;;;;;;;0.00;0.00;;;;;26.21;41.48;100925.09;5076250;28;45475;-64
2021/08/10 03:12:19;;;;;;;;;0.00;0.00;;;;;26.20;41.60;100917.84;5076850;28;45464;-64
2021/08/10 03:14:44;;;;;;;;;0.00;0.00;;;;;26.19;41.64;100916.09;5076695;28;45490;-64
2021/08/10 03:17:11;;;;;;;;;0.00;0.00;;;;;26.20;41.74;100920.56;5076244;28;46126;-65
2021/08/10 03:19:40;;;;;;;;;0.00;0.00;;;;;26.19;41.60;100921.53;5076059;28;45526;-65
2021/08/10 03:22:06;;;;;;;;;0.00;0.00;;;;;26.18;41.55;100914.31;5076677;28;45448;-64
2021/08/10 03:24:32;;;;;;;;;0.00;0.00;;;;;26.17;41.87;100913.44;5076771;28;45409;-65
2021/08/10 03:27:01;;;;;;;;;0.00;0.00;;;;;26.17;41.61;100915.28;5076479;28;45353;-65
2021/08/10 03:29:28;;;;;;;;;0.00;0.00;;;;;26.14;41.81;100903.56;5076252;28;45450;-64
2021/08/10 03:31:54;;;;;;;;;0.00;0.00;;;;;26.15;42.04;100902.59;5076601;28;45475;-64
2021/08/10 03:34:21;;;;;;;;;0.00;0.00;;;;;26.14;41.77;100895.41;5076697;28;45537;-64
2021/08/10 03:36:48;;;;;;;;;0.00;0.00;;;;;26.14;41.78;100898.13;5076081;28;45468;-64
2021/08/10 03:39:15;;;;;;;;;0.00;0.00;;;;;26.14;41.80;100897.25;5076243;28;44960;-64
2021/08/10 03:41:43;;;;;;;;;0.00;0.00;;;;;26.13;41.78;100896.34;5076352;28;45532;-64
2021/08/10 03:44:08;;;;;;;;;0.00;0.00;;;;;26.13;41.42;100900.91;5076395;28;45432;-65
2021/08/10 03:46:35;;;;;;;;;0.00;0.00;;;;;26.11;42.26;100906.44;5058165;28;45525;-64
2021/08/10 03:49:00;;;;;;;;;0.00;0.00;;;;;26.12;42.03;100916.41;5057826;28;45495;-65
2021/08/10 03:51:30;;;;;;;;;0.00;0.00;;;;;26.11;41.92;100914.59;5076167;28;45764;-64
2021/08/10 03:53:55;;;;;;;;;0.00;0.00;;;;;26.13;42.06;100911.81;5076417;28;45476;-64
2021/08/10 03:56:26;;;;;;;;;0.00;0.00;;;;;26.13;41.97;100911.81;5074687;28;45814;-64
2021/08/10 03:58:55;;;;;;;;;0.00;0.00;;;;;26.12;42.20;100908.22;5075909;28;45446;-64
2021/08/10 04:01:24;;;;;;;;;0.00;0.00;;;;;26.10;42.14;100907.41;5057880;28;45556;-64
2021/08/10 04:03:50;;;;;;;;;0.00;0.00;;;;;26.11;42.28;100914.59;5076150;27;45436;-64
2021/08/10 04:06:23;;;;;;;;;0.00;0.00;;;;;26.10;41.82;100911.97;5057361;28;47348;-64
2021/08/10 04:08:49;;;;;;;;;0.00;0.00;;;;;26.10;42.01;100917.44;5075750;28;45515;-64
2021/08/10 04:11:19;;;;;;;;;0.00;0.00;;;;;26.10;41.88;100909.25;5075560;28;45627;-65
2021/08/10 04:13:46;;;;;;;;;0.00;0.00;;;;;26.10;42.25;100921.03;5075918;28;45417;-65
2021/08/10 04:16:15;;;;;;;;;0.00;0.00;;;;;26.11;41.95;100921.91;5057138;28;45579;-65
2021/08/10 04:18:41;;;;;;;;;0.00;0.00;;;;;26.10;42.06;100914.72;5075596;28;45432;-64
2021/08/10 04:21:07;;;;;;;;;0.00;0.00;;;;;26.08;42.15;100922.94;5075722;28;45421;-64
2021/08/10 04:23:32;;;;;;;;;0.00;0.00;;;;;26.09;41.77;100916.53;5075648;28;45339;-65
2021/08/10 04:25:57;;;;;;;;;0.00;0.00;;;;;26.08;41.84;100922.94;5057212;28;47274;-65
2021/08/10 04:28:23;;;;;;;;;0.00;0.00;;;;;26.07;42.07;100926.63;5075640;28;45433;-65
2021/08/10 04:30:49;;;;;;;;;0.00;0.00;;;;;26.07;42.23;100929.34;5074814;28;45581;-65
2021/08/10 04:33:14;;;;;;;;;0.00;0.00;;;;;26.08;42.05;100919.34;5076089;28;45496;-65
2021/08/10 04:35:40;;;;;;;;;0.00;0.00;;;;;26.09;42.09;100932.00;5075189;28;45769;-65
2021/08/10 04:38:05;;;;;;;;;0.00;0.00;;;;;26.07;42.14;100926.63;5075219;28;45450;-65
2021/08/10 04:40:32;;;;;;;;;0.00;0.00;;;;;26.08;42.46;100931.13;5075637;28;45973;-64
2021/08/10 04:42:58;;;;;;;;;0.00;0.00;;;;;26.06;42.40;100927.59;5057452;28;45548;-64
2021/08/10 04:45:24;;;;;;;;;0.00;0.00;;;;;26.07;41.99;100928.47;5074984;28;45538;-64
2021/08/10 04:47:50;;;;;;;;;0.00;0.00;;;;;26.07;41.95;100929.34;5074418;28;45454;-64
2021/08/10 04:50:15;;;;;;;;;0.00;0.00;;;;;26.07;42.24;100923.91;5057206;28;45406;-64
2021/08/10 04:52:42;;;;;;;;;0.00;0.00;;;;;26.07;42.43;100933.91;5075271;28;45350;-65
2021/08/10 04:55:08;;;;;;;;;0.00;0.00;;;;;26.07;41.94;100928.47;5074653;28;46438;-64
2021/08/10 04:57:33;;;;;;;;;0.00;0.00;;;;;26.05;42.21;100925.81;5073782;28;45408;-64
2021/08/10 05:00:00;;;;;;;;;0.00;0.00;;;;;26.05;42.16;100928.53;5075066;28;44794;-63
2021/08/10 05:02:26;;;;;;;;;0.00;0.00;;;;;26.04;42.46;100934.97;5075337;28;45607;-63
2021/08/10 05:04:52;;;;;;;;;0.00;0.00;;;;;26.06;42.31;100941.22;5074943;28;46025;-63
2021/08/10 05:07:18;;;;;;;;;0.00;0.00;;;;;26.06;42.57;100938.50;5056727;28;45837;-63
2021/08/10 05:09:43;;;;;;;;;0.00;0.00;;;;;26.04;42.09;100932.22;5075119;28;45472;-64
2021/08/10 05:12:09;;;;;;;;;0.00;0.00;;;;;26.06;42.63;100941.22;5056773;28;45844;-63
2021/08/10 05:14:36;;;;;;;;;0.00;0.00;;;;;26.04;42.31;100934.97;5074594;28;46240;-64
2021/08/10 05:17:04;;;;;;;;;0.00;0.00;;;;;26.04;42.58;100940.41;5074938;28;45454;-63
2021/08/10 05:19:29;;;;;;;;;0.00;0.00;;;;;26.05;42.63;100941.28;5056299;28;45750;-63
2021/08/10 05:21:54;;;;;;;;;0.00;0.00;;;;;26.05;42.22;100944.88;5075170;28;45499;-63
2021/08/10 05:24:20;;;;;;;;;0.00;0.00;;;;;26.05;42.42;100944.88;5039507;28;46065;-63
2021/08/10 05:26:45;;;;;;;;;0.00;0.00;;;;;26.05;42.38;100946.75;5074507;28;45402;-63
2021/08/10 05:29:11;;;;;;;;;0.00;0.00;;;;;26.05;42.66;100950.34;5056441;28;45492;-64
2021/08/10 05:31:45;;;;;;;;;0.00;0.00;;;;;26.06;42.45;100953.97;5074875;28;45449;-63
2021/08/10 05:34:10;;;;;;;;;0.00;0.00;;;;;26.04;42.36;100951.31;5074351;28;45422;-63
2021/08/10 05:36:35;;;;;;;;;0.00;0.00;;;;;26.06;42.45;100951.25;5056304;28;45489;-63
2021/08/10 05:39:03;;;;;;;;;0.00;0.00;;;;;26.05;42.68;100942.16;5074746;28;45475;-64
2021/08/10 05:41:36;;;;;;;;;0.00;0.00;;;;;26.06;42.45;100943.06;5075865;28;45496;-63
2021/08/10 05:44:02;;;;;;;;;0.00;0.00;;;;;26.06;42.32;100943.06;5078090;28;46044;-63
2021/08/10 05:46:27;;;;;;;;;0.00;0.00;;;;;26.07;42.33;100939.38;5077776;28;45470;-63
2021/08/10 05:48:53;;;;;;;;;0.00;0.00;;;;;26.06;42.71;100951.25;5078100;28;45582;-63
2021/08/10 05:51:18;;;;;;;;;0.00;0.00;;;;;26.05;42.28;100946.75;5060079;28;45528;-63
2021/08/10 05:53:44;;;;;;;;;0.00;0.00;;;;;26.07;42.41;100948.41;5078001;28;46162;-63
2021/08/10 05:56:10;;;;;;;;;0.00;0.00;;;;;26.07;42.87;100953.00;5058460;28;45414;-63
2021/08/10 05:58:35;;;;;;;;;0.00;0.00;;;;;26.07;42.52;100951.16;5059595;28;45421;-63
2021/08/10 06:01:03;;;;;;;;;0.00;0.00;;;;;26.08;42.48;100952.94;5078089;28;45448;-63
2021/08/10 06:03:28;;;;;;;;;0.00;0.00;;;;;26.07;42.83;100945.69;5059186;28;47219;-63
2021/08/10 06:05:53;;;;;;;;;0.00;0.00;;;;;26.07;42.48;100945.69;5077969;28;45379;-63
2021/08/10 06:08:19;;;;;;;;;0.00;0.00;;;;;26.08;42.91;100946.59;5078091;28;45567;-63
2021/08/10 06:10:44;;;;;;;;;0.00;0.00;;;;;26.08;42.55;100952.94;5078106;28;45676;-63
2021/08/10 06:13:09;;;;;;;;;0.00;0.00;;;;;26.08;42.71;100961.13;5077584;28;46119;-63
2021/08/10 06:15:37;;;;;;;;;0.00;0.00;;;;;26.09;42.32;100951.09;5077530;28;45468;-63
2021/08/10 06:18:05;;;;;;;;;0.00;0.00;;;;;26.08;42.50;100947.47;5059242;28;45438;-63
2021/08/10 06:20:30;;;;;;;;;0.00;0.00;;;;;26.06;42.54;100949.41;5077821;28;45497;-64
2021/08/10 06:22:55;;;;;;;;;0.00;0.00;;;;;26.09;42.71;100954.69;5077379;28;45884;-63
2021/08/10 06:25:21;;;;;;;;;0.00;0.00;;;;;26.08;42.40;100946.59;5077632;28;45709;-64
2021/08/10 06:27:46;;;;;;;;;0.00;0.00;;;;;26.09;42.36;100934.72;5077441;28;45517;-63
2021/08/10 06:30:14;;;;;;;;;0.00;0.00;;;;;26.09;42.69;100938.34;5077881;28;45474;-63
2021/08/10 06:32:39;;;;;;;;;0.00;0.00;;;;;26.10;42.53;100944.69;5077324;28;45433;-64
2021/08/10 06:35:05;;;;;;;;;0.00;0.00;;;;;26.10;42.41;100951.03;5077351;28;45396;-63
2021/08/10 06:37:31;;;;;;;;;0.00;0.00;;;;;26.10;42.56;100945.56;5077380;28;45482;-64
2021/08/10 06:39:56;;;;;;;;;0.00;0.00;;;;;26.10;42.35;100944.69;5077635;28;45505;-64
2021/08/10 06:42:22;;;;;;;;;0.00;0.00;;;;;26.09;42.57;100943.78;5076962;28;45530;-63
2021/08/10 06:44:48;;;;;;;;;1.33;0.00;;;;;26.10;42.41;100945.56;5058783;28;45519;-63
2021/08/10 06:47:14;;;;;;;;;0.00;0.00;;;;;26.11;42.70;100950.03;5077572;28;45521;-63
2021/08/10 06:49:40;;;;;;;;;0.00;0.00;;;;;26.12;42.69;100954.56;5077354;28;45405;-64
2021/08/10 06:52:07;;;;;;;;;0.00;0.00;;;;;26.12;42.62;100946.38;5076692;28;45978;-64
2021/08/10 06:54:32;;;;;;;;;0.00;0.00;;;;;26.11;42.67;100944.59;5076118;28;45483;-63
2021/08/10 06:57:04;;;;;;;;;0.00;0.00;;;;;26.13;42.29;100942.69;5052093;28;45564;-63
2021/08/10 06:59:30;;;;;;;;;0.00;0.00;;;;;26.13;42.59;100950.84;5055264;28;45683;-64
2021/08/10 07:01:55;;;;;;;;;0.00;0.00;;;;;26.14;42.30;100952.66;5056135;28;45337;-64
2021/08/10 07:04:20;;;;;;;;;0.00;0.00;;;;;26.14;42.61;100946.31;5056496;28;45420;-64
2021/08/10 07:06:46;;;;;;;;;0.00;0.00;;;;;26.14;42.86;100946.31;5056803;28;45915;-64
2021/08/10 07:09:11;;;;;;;;;0.00;0.00;;;;;26.17;42.85;100956.19;5056101;28;45665;-64
2021/08/10 07:11:41;;;;;;;;;0.00;0.00;;;;;26.18;42.35;100957.94;5052156;28;45409;-64
2021/08/10 07:14:11;;;;;;;;;0.00;0.00;;;;;26.19;42.63;100954.25;5037796;28;45565;-64
2021/08/10 07:16:37;;;;;;;;;0.00;0.00;;;;;26.20;42.65;100954.19;5046745;28;44795;-64
2021/08/10 07:19:03;;;;;;;;;0.00;0.00;;;;;26.22;42.90;100965.00;5053426;28;45435;-64
2021/08/10 07:21:28;;;;;;;;;0.00;0.00;;;;;26.22;42.64;100965.00;5044781;28;45554;-65
2021/08/10 07:23:53;;;;;;;;;0.00;0.00;;;;;26.23;42.62;100964.06;5042815;28;45250;-64
2021/08/10 07:26:20;;;;;;;;;0.00;0.00;;;;;26.24;42.45;100964.00;5052881;28;45541;-65
2021/08/10 07:28:46;;;;;;;;;0.00;0.00;;;;;26.26;42.26;100966.66;5051629;28;45966;-64
2021/08/10 07:31:11;;;;;;;;;0.00;0.00;;;;;26.26;42.59;100966.66;5036267;28;46010;-64
2021/08/10 07:33:36;;;;;;;;;0.00;0.00;;;;;26.25;42.62;100964.88;5047960;28;45535;-65
2021/08/10 07:36:02;;;;;;;;;0.00;0.00;;;;;26.29;42.67;100961.03;5034294;28;45518;-64
2021/08/10 07:38:28;;;;;;;;;0.00;0.00;;;;;26.31;42.14;100970.03;5050313;28;45543;-64
2021/08/10 07:40:54;;;;;;;;;0.00;0.00;;;;;26.31;42.73;100964.56;5036940;28;45493;-64
2021/08/10 07:43:19;;;;;;;;;0.00;0.00;;;;;26.33;42.59;100957.22;5042732;28;45779;-64
2021/08/10 07:45:45;;;;;;;;;0.00;0.00;;;;;26.33;42.47;100970.84;5054269;28;45959;-64
2021/08/10 07:48:10;;;;;;;;;0.00;0.00;;;;;26.35;42.29;100972.53;5049606;28;45435;-65
2021/08/10 07:50:36;;;;;;;;;0.00;0.00;;;;;26.35;42.32;100977.09;5054192;28;46082;-64
2021/08/10 07:53:08;;;;;;;;;0.00;0.00;;;;;26.37;42.63;100969.72;5055860;28;45500;-65
2021/08/10 07:55:35;;;;;;;;;0.00;0.00;;;;;26.39;42.32;100976.00;5055429;28;45472;-64
2021/08/10 07:58:08;;;;;;;;;0.00;0.00;;;;;26.40;42.71;100980.50;5070200;28;44797;-64
2021/08/10 08:00:34;;;;;;;;;0.00;0.00;;;;;26.42;42.35;100977.69;5075399;28;45434;-64
2021/08/10 08:03:00;;;;;;;;;0.00;0.00;;;;;26.41;42.58;100976.81;5075665;27;45524;-65
2021/08/10 08:05:25;;;;;;;;;0.00;0.00;;;;;26.44;42.36;100976.69;5074686;28;45524;-65
2021/08/10 08:07:51;;;;;;;;;0.00;0.00;;;;;26.44;42.19;100976.69;5076586;27;45362;-64
2021/08/10 08:10:16;;;;;;;;;0.00;0.00;;;;;26.47;42.53;100978.34;5075752;28;46076;-64
2021/08/10 08:12:42;;;;;;;;;0.00;0.00;;;;;26.47;42.11;100978.34;5075714;28;45405;-64
2021/08/10 08:15:09;;;;;;;;;0.00;0.00;;;;;26.49;42.28;100984.63;5063743;28;45684;-64
2021/08/10 08:17:35;;;;;;;;;0.00;0.00;;;;;26.49;42.24;100977.31;5055457;28;45882;-65
2021/08/10 08:20:00;;;;;;;;;0.00;0.00;;;;;26.51;41.74;100980.84;5036480;28;47704;-65
2021/08/10 08:22:26;;;;;;;;;0.00;0.00;;;;;26.51;42.48;100977.25;5055421;28;45448;-65
2021/08/10 08:24:51;;;;;;;;;0.00;0.00;;;;;26.54;42.09;100983.44;5057175;28;45431;-65
2021/08/10 08:27:18;;;;;;;;;0.00;0.00;;;;;26.54;42.61;100988.00;5075792;28;45479;-65
2021/08/10 08:29:43;;;;;;;;;0.00;0.00;;;;;26.57;42.68;100981.53;5075824;28;45456;-64
2021/08/10 08:32:09;;;;;;;;;0.00;0.00;;;;;26.57;42.49;100978.81;5075643;28;45480;-64
2021/08/10 08:34:35;;;;;;;;;0.00;0.00;;;;;26.61;42.19;100977.72;5075519;28;45585;-65
2021/08/10 08:37:00;;;;;;;;;0.00;0.00;;;;;26.62;42.23;100976.75;5075795;28;45416;-64
2021/08/10 08:39:26;;;;;;;;;0.00;0.00;;;;;26.64;41.94;100977.56;5075262;28;45397;-64
2021/08/10 08:41:51;;;;;;;;;0.00;0.00;;;;;26.65;42.12;100974.75;5076208;27;45446;-64
2021/08/10 08:44:17;;;;;;;;;0.00;0.00;;;;;26.67;42.35;100975.56;5075151;28;45410;-64
2021/08/10 08:46:45;;;;;;;;;0.00;0.00;;;;;26.67;42.00;100967.38;5075564;28;45474;-65
2021/08/10 08:49:14;;;;;;;;;0.00;0.00;;;;;26.70;42.20;100963.59;5074793;28;47057;-64
2021/08/10 08:51:44;;;;;;;;;0.00;0.00;;;;;26.72;41.65;100969.88;5075597;28;45513;-65
2021/08/10 08:54:10;;;;;;;;;0.00;0.00;;;;;26.72;42.13;100964.41;5075176;28;45530;-64
2021/08/10 08:56:35;;;;;;;;;0.00;0.00;;;;;26.75;42.31;100969.75;5073953;28;45466;-64
2021/08/10 08:59:03;;;;;;;;;0.00;0.00;;;;;26.75;41.88;100961.56;5094158;27;46134;-65
2021/08/10 09:01:29;;;;;;;;;0.00;0.00;;;;;26.76;41.58;100959.69;5060114;27;45339;-65
2021/08/10 09:03:54;;;;;;;;;0.00;0.00;;;;;26.79;42.10;100968.63;5085996;27;45369;-65
2021/08/10 09:06:21;;;;;;;;;0.00;0.00;;;;;26.82;42.01;100970.31;5056610;28;45393;-65
2021/08/10 09:08:49;;;;;;;;;0.00;0.00;;;;;26.84;41.98;100974.72;5074415;28;46923;-64
2021/08/10 09:11:19;;;;;;;;;0.00;0.00;;;;;26.86;42.03;100967.34;5074716;28;44880;-64
2021/08/10 09:14:03;;;;;;;;;0.00;0.00;;;;;26.88;42.39;100976.31;5075329;27;45458;-64
2021/08/10 09:16:28;;;;;;;;;0.00;0.00;;;;;26.89;41.91;100972.66;5076243;27;45485;-65
2021/08/10 09:18:54;;;;;;;;;0.00;0.00;;;;;26.91;41.62;100972.59;5095088;27;46019;-63
2021/08/10 09:21:22;;;;;;;;;0.00;0.00;;;;;26.92;41.53;100967.06;5095038;27;45466;-65
2021/08/10 09:23:59;;;;;;;;;0.00;0.00;;;;;26.97;41.52;100971.41;5095313;27;45463;-65
2021/08/10 09:26:34;;;;;;;;;0.00;0.00;;;;;26.98;41.40;100971.28;5095091;27;45518;-64
2021/08/10 09:29:01;;;;;;;;;0.00;0.00;;;;;26.98;41.44;100962.22;5094818;27;45649;-64
2021/08/10 09:31:40;;;;;;;;;0.00;0.00;;;;;27.01;41.74;100970.28;5087907;27;45520;-64
2021/08/10 09:34:17;;;;;;;;;0.00;0.00;;;;;27.02;41.91;100964.72;5074544;28;45412;-64
2021/08/10 09:36:43;;;;;;;;;0.00;0.00;;;;;27.06;41.73;100968.19;5074608;28;45331;-64
2021/08/10 09:39:10;;;;;;;;;0.00;0.00;;;;;27.07;41.73;100959.03;5074266;28;45796;-64
2021/08/10 09:41:36;;;;;;;;;0.00;0.00;;;;;27.08;41.72;100956.22;5074196;28;45607;-64
2021/08/10 09:44:13;;;;;;;;;0.00;0.00;;;;;27.10;41.69;100965.19;5074057;28;45564;-64
2021/08/10 09:46:46;;;;;;;;;0.00;0.00;;;;;27.12;41.37;100956.94;5056272;28;45406;-64
2021/08/10 09:49:11;;;;;;;;;0.00;0.00;;;;;27.14;41.22;100955.88;5074873;27;45440;-64
2021/08/10 09:51:44;;;;;;;;;0.00;0.00;;;;;27.17;41.26;100964.88;5073689;28;45448;-65
2021/08/10 09:54:14;;;;;;;;;0.00;0.00;;;;;27.17;41.19;100959.44;5074165;28;45405;-64
2021/08/10 09:56:52;;;;;;;;;0.00;0.00;;;;;27.20;41.21;100965.63;5074007;28;45478;-64
2021/08/10 09:59:39;;;;;;;;;0.00;0.00;;;;;27.21;41.19;100964.66;5034006;28;45989;-64
2021/08/10 10:02:21;;;;;;;;;0.00;0.00;;;;;27.24;40.95;100963.66;5033861;28;45474;-65
2021/08/10 10:04:55;;;;;;;;;0.00;0.00;;;;;27.24;41.47;100964.53;5034369;28;45515;-65
2021/08/10 10:07:21;;;;;;;;;0.00;0.00;;;;;27.26;41.02;100964.47;5033877;28;45420;-65
2021/08/10 10:09:47;;;;;;;;;0.00;0.00;;;;;27.27;41.04;100963.50;5033689;28;46441;-64
2021/08/10 10:12:19;;;;;;;;;0.00;0.00;;;;;27.29;40.78;100962.47;5033821;28;45669;-66
2021/08/10 10:14:45;;;;;;;;;0.00;0.00;;;;;27.30;41.45;100960.59;5034037;28;45440;-66
2021/08/10 10:17:12;;;;;;;;;0.00;0.00;;;;;27.31;41.23;100966.00;5034262;28;45803;-64
2021/08/10 10:19:40;;;;;;;;;0.00;0.00;;;;;27.30;41.42;100964.22;5033410;28;45432;-65
2021/08/10 10:22:17;;;;;;;;;0.00;0.00;;;;;27.34;41.35;100963.06;5034436;28;45400;-65
2021/08/10 10:24:56;;;;;;;;;0.00;0.00;;;;;27.36;40.58;100956.66;5050069;28;45488;-65
2021/08/10 10:27:24;;;;;;;;;0.00;0.00;;;;;27.38;41.25;100965.66;5034371;28;45396;-66
2021/08/10 10:29:54;;;;;;;;;0.00;0.00;;;;;27.39;40.71;100964.69;5036306;28;46052;-65
2021/08/10 10:32:21;;;;;;;;;0.00;0.00;;;;;27.39;40.60;100964.69;5036902;28;45464;-65
2021/08/10 10:34:48;;;;;;;;;0.00;0.00;;;;;27.41;40.83;100960.03;5037205;28;45416;-64
2021/08/10 10:37:25;;;;;;;;;0.00;0.00;;;;;27.43;41.20;100958.09;5037243;28;45775;-64
2021/08/10 10:39:58;;;;;;;;;0.00;0.00;;;;;27.44;40.76;100954.41;5037423;28;45628;-65
2021/08/10 10:42:24;;;;;;;;;0.00;0.00;;;;;27.44;41.19;100952.56;5036779;28;45497;-65
2021/08/10 10:44:52;;;;;;;;;0.00;0.00;;;;;27.47;40.67;100955.16;5034894;28;45543;-64
2021/08/10 10:47:24;;;;;;;;;0.00;0.00;;;;;27.48;41.20;100956.91;5037440;28;45784;-65
2021/08/10 10:49:55;;;;;;;;;0.00;0.00;;;;;27.49;41.00;100955.94;5036808;28;45485;-65
2021/08/10 10:52:24;;;;;;;;;0.00;0.00;;;;;27.49;41.11;100949.56;5036706;28;45528;-65
2021/08/10 10:54:54;;;;;;;;;0.00;0.00;;;;;27.50;40.75;100954.09;5036739;28;45777;-65
2021/08/10 10:57:28;;;;;;;;;0.00;0.00;;;;;27.51;40.58;100948.53;5058792;27;45464;-65
2021/08/10 10:59:58;;;;;;;;;0.00;0.00;;;;;27.51;40.53;100943.09;5097055;27;45559;-65
2021/08/10 11:02:26;;;;;;;;;0.00;0.00;;;;;27.53;41.09;100948.44;5078895;27;45551;-65
2021/08/10 11:05:07;;;;;;;;;0.00;0.00;;;;;27.54;40.56;100947.50;5080340;27;45550;-65
2021/08/10 11:07:40;;;;;;;;;0.00;0.00;;;;;27.54;40.53;100944.75;5077154;28;45346;-65
2021/08/10 11:10:09;;;;;;;;;0.00;0.00;;;;;27.55;41.06;100943.78;5058697;28;46173;-65
2021/08/10 11:12:45;;;;;;;;;0.00;0.00;;;;;27.55;40.29;100943.78;5076428;28;45493;-65
2021/08/10 11:15:11;;;;;;;;;0.00;0.00;;;;;27.57;41.00;100940.97;5056626;28;45460;-65
2021/08/10 11:17:37;;;;;;;;;0.00;0.00;;;;;27.57;40.90;100946.44;5056731;28;45629;-65
2021/08/10 11:20:27;;;;;;;;;0.00;0.00;;;;;27.56;40.48;100948.28;5057060;28;45491;-65
2021/08/10 11:23:19;;;;;;;;;0.00;0.00;;;;;27.57;40.40;100950.06;5056185;28;45375;-65
2021/08/10 11:25:53;;;;;;;;;0.00;0.00;;;;;27.56;40.74;100951.03;4977413;28;45547;-65
2021/08/10 11:28:26;;;;;;;;;0.00;0.00;;;;;27.57;40.91;100952.81;4977254;28;45407;-65